Time;durP1;ratioP1;P1;durP2;ratioP2;P2;SDS_P1;SDS_P2;PMS_P1;PMS_P2;Temp;Humidity;BMP_temperature;BMP_pressure;BME280_temperature;BME280_humidity;BME280_pressure;Samples;Min_cycle;Max_cycle;Signal;HPM_P1;HPM_P2
2022/05/21 00:00:26;;;;;;;19.05;9.68;;;;;;;;;;5043462;28;20029;-74
2022/05/21 00:02:53;;;;;;;16.77;9.93;;;;;;;;;;5050031;28;20127;-74
2022/05/21 00:05:21;;;;;;;17.77;8.93;;;;;;;;;;5045477;28;20044;-74
2022/05/21 00:07:47;;;;;;;17.15;9.98;;;;;;;;;;5044148;28;20021;-74
2022/05/21 00:10:14;;;;;;;15.98;9.23;;;;;;;;;;5046225;28;20036;-74
2022/05/21 00:12:41;;;;;;;17.88;10.13;;;;;;;;;;5043649;28;20022;-74
2022/05/21 00:15:08;;;;;;;16.25;8.85;;;;;;;;;;5055798;22;20057;-71
2022/05/21 00:17:34;;;;;;;19.73;8.90;;;;;;;;;;5053376;28;20028;-71
2022/05/21 00:20:00;;;;;;;16.88;9.25;;;;;;;;;;5053087;28;20504;-71
2022/05/21 00:22:27;;;;;;;17.48;8.65;;;;;;;;;;5053424;28;20446;-71
2022/05/21 00:24:53;;;;;;;22.40;8.80;;;;;;;;;;5051321;28;20036;-71
2022/05/21 00:27:20;;;;;;;20.10;9.35;;;;;;;;;;5051847;28;20515;-71
2022/05/21 00:29:46;;;;;;;20.42;8.90;;;;;;;;;;5055426;28;20099;-71
2022/05/21 00:32:12;;;;;;;17.27;8.90;;;;;;;;;;5052305;28;20463;-71
2022/05/21 00:34:38;;;;;;;18.80;9.20;;;;;;;;;;5052723;28;20485;-71
2022/05/21 00:37:04;;;;;;;21.50;9.18;;;;;;;;;;5052955;28;20505;-70
2022/05/21 00:39:31;;;;;;;22.90;9.02;;;;;;;;;;5049214;28;20029;-70
2022/05/21 00:42:03;;;;;;;23.52;10.88;;;;;;;;;;5067409;28;20035;-70
2022/05/21 00:44:30;;;;;;;22.63;9.37;;;;;;;;;;5052316;28;20408;-70
2022/05/21 00:46:56;;;;;;;25.02;9.80;;;;;;;;;;5052586;28;20870;-71
2022/05/21 00:49:28;;;;;;;20.30;9.20;;;;;;;;;;5054974;28;20518;-70
2022/05/21 00:52:07;;;;;;;20.73;9.10;;;;;;;;;;5048135;28;20047;-70
2022/05/21 00:54:35;;;;;;;27.67;9.82;;;;;;;;;;5046491;28;20040;-70
2022/05/21 00:57:06;;;;;;;27.13;9.68;;;;;;;;;;5052057;28;20139;-70
2022/05/21 00:59:48;;;;;;;22.80;9.85;;;;;;;;;;5052776;28;20120;-70
2022/05/21 01:02:16;;;;;;;23.35;9.70;;;;;;;;;;5053063;28;20119;-70
2022/05/21 01:04:45;;;;;;;23.70;10.10;;;;;;;;;;5056592;28;20051;-70
2022/05/21 01:07:14;;;;;;;18.20;9.63;;;;;;;;;;5056510;28;20040;-70
2022/05/21 01:09:41;;;;;;;16.83;8.77;;;;;;;;;;5056189;28;20021;-71
2022/05/21 01:12:08;;;;;;;20.65;9.07;;;;;;;;;;5055695;28;20029;-71
2022/05/21 01:14:36;;;;;;;18.85;8.75;;;;;;;;;;5056658;28;20566;-71
2022/05/21 01:17:03;;;;;;;23.80;8.90;;;;;;;;;;5057564;28;20040;-71
2022/05/21 01:19:30;;;;;;;20.85;9.05;;;;;;;;;;5056320;28;20033;-71
2022/05/21 01:21:56;;;;;;;22.35;8.80;;;;;;;;;;5056000;28;20031;-71
2022/05/21 01:24:22;;;;;;;18.42;8.77;;;;;;;;;;5055405;28;20131;-71
2022/05/21 01:26:48;;;;;;;18.27;9.52;;;;;;;;;;5055708;28;20342;-71
2022/05/21 01:29:23;;;;;;;19.08;8.38;;;;;;;;;;5056204;28;20082;-71
2022/05/21 01:31:50;;;;;;;21.65;8.73;;;;;;;;;;5057011;28;20512;-70
2022/05/21 01:34:17;;;;;;;15.60;8.40;;;;;;;;;;5055925;28;20086;-71
2022/05/21 01:36:43;;;;;;;18.90;8.38;;;;;;;;;;5056014;28;20021;-71
2022/05/21 01:39:09;;;;;;;19.40;8.98;;;;;;;;;;5055270;28;20032;-71
2022/05/21 01:41:36;;;;;;;18.85;8.50;;;;;;;;;;5055771;28;20029;-71
2022/05/21 01:46:46;;;;;;;18.77;8.75;;;;;;;;;;5055745;28;20467;-71
2022/05/21 01:49:13;;;;;;;22.13;8.55;;;;;;;;;;5056113;28;20037;-71
2022/05/21 01:51:39;;;;;;;22.52;9.25;;;;;;;;;;5056838;28;20021;-71
2022/05/21 01:54:05;;;;;;;26.13;10.23;;;;;;;;;;5054829;28;20033;-71
2022/05/21 01:56:31;;;;;;;25.40;9.35;;;;;;;;;;5057187;28;20021;-71
2022/05/21 01:58:57;;;;;;;21.58;8.65;;;;;;;;;;5055252;28;20033;-71
2022/05/21 02:01:25;;;;;;;22.02;8.88;;;;;;;;;;5055505;28;22030;-70
2022/05/21 02:03:51;;;;;;;20.00;9.40;;;;;;;;;;5057284;28;20378;-70
2022/05/21 02:06:17;;;;;;;22.63;9.13;;;;;;;;;;5047574;28;20025;-71
2022/05/21 02:08:43;;;;;;;24.63;9.25;;;;;;;;;;5055372;28;20032;-71
2022/05/21 02:11:09;;;;;;;24.00;9.60;;;;;;;;;;5057164;28;20105;-71
2022/05/21 02:13:36;;;;;;;20.17;9.07;;;;;;;;;;5054888;28;20144;-71
2022/05/21 02:16:02;;;;;;;19.10;8.40;;;;;;;;;;5055166;28;20025;-71
2022/05/21 02:18:28;;;;;;;22.13;8.70;;;;;;;;;;5055510;28;20027;-71
2022/05/21 02:20:55;;;;;;;24.42;8.15;;;;;;;;;;5054581;28;20035;-71
2022/05/21 02:23:21;;;;;;;20.95;7.70;;;;;;;;;;5055124;28;20032;-71
2022/05/21 02:25:48;;;;;;;20.38;8.93;;;;;;;;;;5055344;28;20032;-71
2022/05/21 02:28:14;;;;;;;20.15;8.55;;;;;;;;;;5054927;28;20520;-71
2022/05/21 02:30:40;;;;;;;18.75;8.60;;;;;;;;;;5055082;28;20155;-71
2022/05/21 02:33:07;;;;;;;18.23;8.55;;;;;;;;;;5054460;28;20029;-71
2022/05/21 02:35:33;;;;;;;26.58;9.10;;;;;;;;;;5049658;28;20543;-71
2022/05/21 02:40:44;;;;;;;16.92;8.23;;;;;;;;;;5049273;28;20029;-71
2022/05/21 02:43:10;;;;;;;24.27;9.30;;;;;;;;;;5055851;28;20463;-71
2022/05/21 02:45:36;;;;;;;21.10;8.52;;;;;;;;;;5055332;28;20511;-71
2022/05/21 02:48:02;;;;;;;24.88;8.57;;;;;;;;;;5052429;28;20096;-71
2022/05/21 02:50:33;;;;;;;24.88;8.55;;;;;;;;;;5054231;28;20101;-71
2022/05/21 02:53:00;;;;;;;21.38;9.38;;;;;;;;;;5054647;28;20025;-71
2022/05/21 02:55:26;;;;;;;17.25;9.00;;;;;;;;;;5055023;28;20079;-71
2022/05/21 02:57:52;;;;;;;25.15;9.55;;;;;;;;;;5054323;28;20103;-70
2022/05/21 03:00:21;;;;;;;19.23;8.82;;;;;;;;;;5054432;28;20029;-70
2022/05/21 03:02:47;;;;;;;22.85;8.45;;;;;;;;;;5053680;28;20021;-70
2022/05/21 03:05:14;;;;;;;20.08;8.82;;;;;;;;;;5054448;28;20116;-70
2022/05/21 03:07:41;;;;;;;21.60;8.57;;;;;;;;;;5054531;28;20408;-70
2022/05/21 03:10:23;;;;;;;19.75;8.45;;;;;;;;;;5054287;28;20040;-71
2022/05/21 03:12:56;;;;;;;22.10;8.93;;;;;;;;;;5055896;28;20032;-71
2022/05/21 03:15:26;;;;;;;28.73;10.07;;;;;;;;;;5054339;28;20036;-70
2022/05/21 03:17:52;;;;;;;24.02;9.82;;;;;;;;;;5053586;28;20029;-70
2022/05/21 03:20:19;;;;;;;23.13;9.77;;;;;;;;;;5053685;28;20068;-71
2022/05/21 03:22:45;;;;;;;28.33;10.00;;;;;;;;;;5053711;28;20025;-71
2022/05/21 03:25:12;;;;;;;23.00;9.80;;;;;;;;;;5053414;28;20512;-71
2022/05/21 03:27:38;;;;;;;24.88;9.80;;;;;;;;;;5055249;28;20028;-71
2022/05/21 03:30:06;;;;;;;22.27;10.27;;;;;;;;;;5052791;28;20078;-71
2022/05/21 03:32:32;;;;;;;20.70;9.52;;;;;;;;;;5054229;28;20429;-71
2022/05/21 03:34:58;;;;;;;23.98;9.50;;;;;;;;;;5053916;28;20028;-70
2022/05/21 03:37:24;;;;;;;20.00;9.48;;;;;;;;;;5054319;28;20509;-71
2022/05/21 03:39:50;;;;;;;19.92;9.50;;;;;;;;;;5053788;28;20855;-71
2022/05/21 03:42:17;;;;;;;18.73;8.98;;;;;;;;;;5053635;28;20028;-71
2022/05/21 03:44:45;;;;;;;21.73;8.98;;;;;;;;;;5052904;28;20040;-71
2022/05/21 03:47:12;;;;;;;19.20;9.63;;;;;;;;;;5053690;28;20405;-71
2022/05/21 03:49:38;;;;;;;17.83;8.93;;;;;;;;;;5053891;28;20100;-71
2022/05/21 03:52:06;;;;;;;23.50;9.10;;;;;;;;;;5053500;28;20037;-71
2022/05/21 03:54:32;;;;;;;18.52;9.02;;;;;;;;;;5052768;28;20019;-71
2022/05/21 03:56:59;;;;;;;18.98;8.73;;;;;;;;;;5052346;28;20021;-71
2022/05/21 03:59:25;;;;;;;19.83;8.63;;;;;;;;;;5053906;28;20069;-71
2022/05/21 04:01:51;;;;;;;21.50;8.63;;;;;;;;;;5052624;28;20120;-71
2022/05/21 04:04:18;;;;;;;23.75;8.32;;;;;;;;;;5055080;28;20037;-71
2022/05/21 04:06:44;;;;;;;21.25;9.50;;;;;;;;;;5054549;28;20021;-71
2022/05/21 04:09:10;;;;;;;22.35;9.32;;;;;;;;;;5052263;28;20033;-71
2022/05/21 04:11:36;;;;;;;25.70;9.60;;;;;;;;;;5052621;28;20063;-71
2022/05/21 04:14:02;;;;;;;25.77;9.93;;;;;;;;;;5052975;28;20458;-71
2022/05/21 04:16:29;;;;;;;19.00;8.10;;;;;;;;;;5052947;28;20028;-71
2022/05/21 04:18:55;;;;;;;20.73;9.00;;;;;;;;;;5052820;28;20112;-71
2022/05/21 04:21:21;;;;;;;22.75;7.97;;;;;;;;;;5053042;28;20158;-71
2022/05/21 04:23:47;;;;;;;16.40;8.25;;;;;;;;;;5051935;28;20101;-71
2022/05/21 04:26:13;;;;;;;20.20;9.43;;;;;;;;;;5052530;28;20033;-71
2022/05/21 04:28:39;;;;;;;20.98;8.05;;;;;;;;;;5052720;28;20428;-71
2022/05/21 04:31:05;;;;;;;25.55;8.80;;;;;;;;;;5053145;28;20447;-71
2022/05/21 04:33:32;;;;;;;30.35;9.90;;;;;;;;;;5052995;28;20537;-71
2022/05/21 04:38:42;;;;;;;22.10;8.98;;;;;;;;;;5049507;28;20043;-71
2022/05/21 04:41:08;;;;;;;24.13;9.18;;;;;;;;;;5053648;28;20033;-71
2022/05/21 04:43:35;;;;;;;25.63;10.20;;;;;;;;;;5054391;28;20034;-71
2022/05/21 04:46:01;;;;;;;20.65;9.13;;;;;;;;;;5054034;28;20033;-71
2022/05/21 04:48:27;;;;;;;22.33;9.68;;;;;;;;;;5052771;28;20039;-71
2022/05/21 04:50:53;;;;;;;27.40;9.88;;;;;;;;;;5051747;28;20078;-71
2022/05/21 04:53:19;;;;;;;24.20;9.55;;;;;;;;;;5052310;28;20408;-71
2022/05/21 04:55:45;;;;;;;26.90;9.90;;;;;;;;;;5052452;28;20029;-71
2022/05/21 04:58:12;;;;;;;23.35;9.65;;;;;;;;;;5051044;28;20413;-71
2022/05/21 05:00:38;;;;;;;21.85;8.35;;;;;;;;;;5053035;28;20025;-71
2022/05/21 05:03:10;;;;;;;23.50;8.98;;;;;;;;;;5051455;28;20029;-71
2022/05/21 05:05:37;;;;;;;21.08;8.98;;;;;;;;;;5053285;28;20033;-71
2022/05/21 05:08:04;;;;;;;21.15;8.70;;;;;;;;;;5051913;28;20029;-71
2022/05/21 05:10:30;;;;;;;22.00;8.60;;;;;;;;;;5054236;28;20529;-71
2022/05/21 05:12:56;;;;;;;22.75;7.95;;;;;;;;;;5052362;28;20021;-71
2022/05/21 05:15:22;;;;;;;22.90;8.88;;;;;;;;;;5052115;28;20489;-71
2022/05/21 05:17:48;;;;;;;21.02;8.55;;;;;;;;;;5051878;28;20021;-71
2022/05/21 05:20:14;;;;;;;23.48;8.52;;;;;;;;;;5053930;28;20036;-71
2022/05/21 05:22:41;;;;;;;26.92;9.85;;;;;;;;;;5051585;28;20032;-71
2022/05/21 05:25:07;;;;;;;19.02;7.95;;;;;;;;;;5053560;28;20045;-70
2022/05/21 05:27:33;;;;;;;23.67;8.38;;;;;;;;;;5053011;28;20484;-70
2022/05/21 05:30:03;;;;;;;18.80;7.80;;;;;;;;;;5051645;28;20048;-69
2022/05/21 05:32:29;;;;;;;18.40;8.65;;;;;;;;;;5051762;28;20116;-69
2022/05/21 05:34:55;;;;;;;20.30;8.15;;;;;;;;;;5052316;28;20488;-68
2022/05/21 05:37:24;;;;;;;19.42;8.23;;;;;;;;;;5051856;28;20033;-72
2022/05/21 05:39:50;;;;;;;25.05;7.80;;;;;;;;;;5052225;28;20025;-70
2022/05/21 05:42:17;;;;;;;24.10;8.23;;;;;;;;;;5052545;28;20033;-69
2022/05/21 05:44:43;;;;;;;19.23;7.75;;;;;;;;;;5051640;28;20025;-69
2022/05/21 05:47:09;;;;;;;22.27;8.45;;;;;;;;;;5052039;28;20033;-69
2022/05/21 05:49:36;;;;;;;20.67;8.25;;;;;;;;;;5054831;28;20037;-69
2022/05/21 05:52:02;;;;;;;21.73;8.93;;;;;;;;;;5055717;28;20028;-69
2022/05/21 05:54:29;;;;;;;22.42;8.05;;;;;;;;;;5054646;28;20530;-70
2022/05/21 05:56:55;;;;;;;20.67;7.18;;;;;;;;;;5055279;28;20021;-69
2022/05/21 06:04:51;;;;;;;16.80;7.40;;;;;;;;;;5056976;28;20469;-70
2022/05/21 06:07:17;;;;;;;17.20;7.78;;;;;;;;;;5053715;28;20040;-69
2022/05/21 06:09:43;;;;;;;20.35;7.70;;;;;;;;;;5055181;28;20025;-72
2022/05/21 06:12:10;;;;;;;17.42;8.20;;;;;;;;;;5054510;28;20104;-71
2022/05/21 06:14:37;;;;;;;17.75;8.20;;;;;;;;;;5053850;28;20048;-71
2022/05/21 06:17:03;;;;;;;15.73;7.05;;;;;;;;;;5054759;28;20037;-71
2022/05/21 06:19:29;;;;;;;15.80;8.02;;;;;;;;;;5055242;28;20025;-71
2022/05/21 06:21:59;;;;;;;19.73;7.72;;;;;;;;;;5055163;28;20032;-71
2022/05/21 06:24:25;;;;;;;19.70;7.90;;;;;;;;;;5054664;28;20583;-71
2022/05/21 06:26:51;;;;;;;22.77;8.13;;;;;;;;;;5054320;28;20039;-71
2022/05/21 06:29:18;;;;;;;16.15;7.10;;;;;;;;;;5054867;28;20035;-71
2022/05/21 06:31:44;;;;;;;17.77;7.93;;;;;;;;;;5054176;28;20094;-72
2022/05/21 06:34:10;;;;;;;15.93;6.90;;;;;;;;;;5054829;28;20073;-73
2022/05/21 06:36:36;;;;;;;22.20;7.00;;;;;;;;;;5056289;28;20112;-70
2022/05/21 06:39:03;;;;;;;19.67;7.93;;;;;;;;;;5052405;28;20051;-71
2022/05/21 06:41:31;;;;;;;20.42;7.40;;;;;;;;;;5049721;28;20037;-70
2022/05/21 06:43:57;;;;;;;21.65;7.20;;;;;;;;;;5054914;28;20029;-70
2022/05/21 06:46:23;;;;;;;18.95;8.05;;;;;;;;;;5054679;28;20033;-70
2022/05/21 06:48:50;;;;;;;18.40;7.53;;;;;;;;;;5054618;28;20078;-72
2022/05/21 06:51:16;;;;;;;17.02;7.18;;;;;;;;;;5053261;28;20065;-72
2022/05/21 06:53:42;;;;;;;18.67;7.10;;;;;;;;;;5053802;28;20029;-73
2022/05/21 06:56:10;;;;;;;18.77;6.60;;;;;;;;;;5049721;28;20546;-73
2022/05/21 06:58:36;;;;;;;17.10;7.28;;;;;;;;;;5051095;28;20033;-74
2022/05/21 07:01:02;;;;;;;15.98;6.38;;;;;;;;;;5052254;28;20511;-72
2022/05/21 07:03:28;;;;;;;16.40;7.53;;;;;;;;;;5052531;28;20044;-74
2022/05/21 07:08:39;;;;;;;15.68;7.03;;;;;;;;;;5053496;28;20044;-72
2022/05/21 07:11:06;;;;;;;16.55;6.60;;;;;;;;;;5054173;28;20013;-74
2022/05/21 07:13:32;;;;;;;18.85;7.20;;;;;;;;;;5053921;28;20037;-73
2022/05/21 07:15:59;;;;;;;16.80;6.38;;;;;;;;;;5054939;28;20035;-74
2022/05/21 07:18:29;;;;;;;16.92;7.10;;;;;;;;;;5053494;28;20028;-72
2022/05/21 07:20:56;;;;;;;16.20;6.25;;;;;;;;;;5053437;28;20028;-74
2022/05/21 07:23:23;;;;;;;19.73;7.90;;;;;;;;;;5054798;28;20540;-74
2022/05/21 07:25:49;;;;;;;17.08;6.47;;;;;;;;;;5054081;28;20021;-72
2022/05/21 07:28:15;;;;;;;17.45;6.30;;;;;;;;;;5053848;28;20115;-72
2022/05/21 07:30:42;;;;;;;15.60;5.97;;;;;;;;;;5053771;28;20031;-73
2022/05/21 07:33:16;;;;;;;16.40;5.97;;;;;;;;;;5053047;28;20388;-73
2022/05/21 07:35:42;;;;;;;15.02;6.93;;;;;;;;;;5050819;28;20029;-74
2022/05/21 07:38:10;;;;;;;14.82;6.32;;;;;;;;;;5053757;28;20041;-73
2022/05/21 07:40:37;;;;;;;13.25;7.07;;;;;;;;;;5052959;28;20090;-73
2022/05/21 07:43:30;;;;;;;16.08;7.28;;;;;;;;;;5053870;28;20516;-74
2022/05/21 07:45:57;;;;;;;20.42;6.18;;;;;;;;;;5041012;28;20033;-74
2022/05/21 07:48:23;;;;;;;13.10;6.03;;;;;;;;;;5052424;28;20077;-73
2022/05/21 07:50:57;;;;;;;18.30;6.72;;;;;;;;;;5052112;28;20021;-73
2022/05/21 07:53:26;;;;;;;13.68;5.90;;;;;;;;;;5053517;28;20067;-73
2022/05/21 07:55:53;;;;;;;14.13;6.60;;;;;;;;;;5055168;28;20114;-73
2022/05/21 07:58:20;;;;;;;12.63;6.15;;;;;;;;;;5054558;28;20086;-72
2022/05/21 08:00:46;;;;;;;16.38;6.55;;;;;;;;;;5054382;28;20020;-72
2022/05/21 08:03:13;;;;;;;18.02;6.30;;;;;;;;;;5052559;28;20029;-72
2022/05/21 08:05:40;;;;;;;16.23;6.22;;;;;;;;;;5053278;28;20079;-73
2022/05/21 08:08:06;;;;;;;13.48;6.80;;;;;;;;;;5052929;28;20025;-73
2022/05/21 08:10:33;;;;;;;21.10;7.10;;;;;;;;;;5053432;28;20400;-73
2022/05/21 08:12:59;;;;;;;19.33;6.60;;;;;;;;;;5053107;28;20378;-72
2022/05/21 08:15:25;;;;;;;15.45;6.50;;;;;;;;;;5053280;28;20021;-72
2022/05/21 08:17:52;;;;;;;15.75;6.32;;;;;;;;;;5051473;28;20029;-73
2022/05/21 08:20:18;;;;;;;17.27;6.00;;;;;;;;;;5047544;28;20039;-74
2022/05/21 08:28:15;;;;;;;14.57;6.22;;;;;;;;;;5053250;28;20106;-73
2022/05/21 08:30:43;;;;;;;14.48;6.63;;;;;;;;;;5052499;28;20028;-73
2022/05/21 08:33:10;;;;;;;13.60;6.53;;;;;;;;;;5052180;28;20071;-72
2022/05/21 08:35:38;;;;;;;16.38;7.60;;;;;;;;;;5054827;28;20055;-73
2022/05/21 08:38:05;;;;;;;22.02;6.65;;;;;;;;;;5052925;28;20040;-73
2022/05/21 08:40:55;;;;;;;24.77;7.22;;;;;;;;;;5054148;28;20025;-73
2022/05/21 08:43:23;;;;;;;18.58;7.10;;;;;;;;;;5043216;28;20056;-73
2022/05/21 08:45:58;;;;;;;15.18;6.43;;;;;;;;;;5051904;28;20078;-73
2022/05/21 08:48:25;;;;;;;21.80;7.53;;;;;;;;;;5052902;28;20041;-73
2022/05/21 08:50:54;;;;;;;19.23;7.00;;;;;;;;;;5052426;28;20122;-72
2022/05/21 08:53:22;;;;;;;14.40;6.97;;;;;;;;;;5052437;28;20025;-72
2022/05/21 08:55:53;;;;;;;13.65;6.32;;;;;;;;;;5052250;28;20103;-72
2022/05/21 08:58:22;;;;;;;16.20;6.80;;;;;;;;;;5052615;28;20116;-72
2022/05/21 09:00:48;;;;;;;15.50;6.70;;;;;;;;;;5052381;28;20032;-72
2022/05/21 09:03:17;;;;;;;17.88;6.25;;;;;;;;;;5052264;28;20061;-72
2022/05/21 09:06:03;;;;;;;12.93;6.95;;;;;;;;;;5050102;28;20021;-72
2022/05/21 09:08:48;;;;;;;15.27;6.63;;;;;;;;;;4958030;28;20142;-72
2022/05/21 09:11:16;;;;;;;23.02;7.25;;;;;;;;;;4966881;28;20049;-74
2022/05/21 09:13:52;;;;;;;17.20;6.40;;;;;;;;;;4970204;28;20047;-71
2022/05/21 09:19:05;;;;;;;14.90;6.95;;;;;;;;;;4970579;28;20058;-72
2022/05/21 09:21:32;;;;;;;13.45;7.05;;;;;;;;;;4954948;28;20026;-73
2022/05/21 09:24:00;;;;;;;24.33;6.78;;;;;;;;;;4957667;28;20047;-72
2022/05/21 09:26:28;;;;;;;17.02;6.72;;;;;;;;;;4973968;28;20051;-72
2022/05/21 09:29:10;;;;;;;15.52;7.30;;;;;;;;;;4973453;28;20037;-72
2022/05/21 09:31:36;;;;;;;16.77;6.55;;;;;;;;;;4973874;28;20507;-72
2022/05/21 09:34:12;;;;;;;18.80;7.25;;;;;;;;;;4973967;28;20031;-73
2022/05/21 09:36:39;;;;;;;13.98;7.18;;;;;;;;;;4973141;28;20073;-68
2022/05/21 09:39:05;;;;;;;16.02;6.80;;;;;;;;;;4974828;28;20086;-68
2022/05/21 09:41:32;;;;;;;11.88;6.35;;;;;;;;;;4974089;28;20109;-68
2022/05/21 09:47:09;;;;;;;14.15;6.30;;;;;;;;;;5051876;28;20035;-68
2022/05/21 09:49:35;;;;;;;11.93;7.00;;;;;;;;;;5055543;28;20066;-68
2022/05/21 09:52:04;;;;;;;19.02;6.60;;;;;;;;;;5057348;28;20029;-68
2022/05/21 09:54:36;;;;;;;14.48;6.70;;;;;;;;;;5041262;28;20030;-68
2022/05/21 09:57:02;;;;;;;20.23;7.38;;;;;;;;;;5051092;28;20079;-68
2022/05/21 09:59:30;;;;;;;15.02;7.00;;;;;;;;;;5056972;28;20021;-68
2022/05/21 10:01:59;;;;;;;15.32;6.30;;;;;;;;;;5055412;28;20444;-69
2022/05/21 10:04:41;;;;;;;16.17;6.60;;;;;;;;;;5055771;28;20455;-72
2022/05/21 10:10:58;;;;;;;15.82;6.82;;;;;;;;;;5054307;28;20052;-71
2022/05/21 10:12:47;;;;;;;13.13;6.53;;;;;;;;;;5041871;28;20112;-71
2022/05/21 10:15:15;;;;;;;12.15;6.00;;;;;;;;;;5055367;28;20049;-71
2022/05/21 10:17:48;;;;;;;16.35;6.38;;;;;;;;;;5052851;28;20029;-72
2022/05/21 10:20:14;;;;;;;13.90;6.55;;;;;;;;;;5054903;28;20029;-71
2022/05/21 10:22:52;;;;;;;16.15;6.03;;;;;;;;;;5054699;28;20067;-71
2022/05/21 10:25:20;;;;;;;18.60;6.45;;;;;;;;;;5053950;28;20045;-72
2022/05/21 10:27:49;;;;;;;14.55;6.30;;;;;;;;;;5053586;28;20113;-72
2022/05/21 10:30:21;;;;;;;17.20;6.10;;;;;;;;;;5054084;28;20048;-72
2022/05/21 10:33:06;;;;;;;16.60;5.60;;;;;;;;;;5053351;28;20044;-73
2022/05/21 10:35:50;;;;;;;14.15;5.68;;;;;;;;;;5052118;28;20108;-71
2022/05/21 10:38:20;;;;;;;14.55;6.53;;;;;;;;;;5054264;28;20493;-68
2022/05/21 10:40:47;;;;;;;16.13;6.35;;;;;;;;;;5049596;28;20025;-68
2022/05/21 10:43:13;;;;;;;19.55;5.85;;;;;;;;;;5052291;28;20048;-69
2022/05/21 10:45:48;;;;;;;9.65;5.80;;;;;;;;;;5052005;28;20040;-68
2022/05/21 10:48:14;;;;;;;16.10;6.22;;;;;;;;;;5050484;28;20039;-68
2022/05/21 10:50:47;;;;;;;12.48;6.00;;;;;;;;;;5052234;28;20172;-68
2022/05/21 10:53:23;;;;;;;16.50;6.03;;;;;;;;;;5051652;28;20111;-70
2022/05/21 10:56:01;;;;;;;16.55;6.40;;;;;;;;;;5054263;28;20516;-70
2022/05/21 10:58:41;;;;;;;19.70;6.85;;;;;;;;;;5053165;28;20045;-69
2022/05/21 11:01:14;;;;;;;15.68;5.75;;;;;;;;;;5053287;28;20025;-74
2022/05/21 11:03:41;;;;;;;20.42;7.13;;;;;;;;;;5054617;28;20151;-74
2022/05/21 11:06:29;;;;;;;18.42;7.53;;;;;;;;;;5052730;28;20021;-71
2022/05/21 11:08:56;;;;;;;16.08;6.88;;;;;;;;;;5052980;28;20029;-71
2022/05/21 11:11:42;;;;;;;18.05;6.40;;;;;;;;;;5056221;28;20397;-71
2022/05/21 11:14:17;;;;;;;20.48;7.80;;;;;;;;;;5055934;28;20098;-71
2022/05/21 11:16:56;;;;;;;21.33;8.73;;;;;;;;;;5055719;28;20361;-71
2022/05/21 11:19:45;;;;;;;20.17;10.02;;;;;;;;;;5054240;28;20048;-70
2022/05/21 11:22:17;;;;;;;18.88;9.70;;;;;;;;;;5044030;28;20048;-71
2022/05/21 11:24:51;;;;;;;29.75;9.75;;;;;;;;;;5054212;28;20028;-71
2022/05/21 11:27:20;;;;;;;20.35;9.65;;;;;;;;;;5054084;28;20037;-70
2022/05/21 11:29:49;;;;;;;25.73;9.65;;;;;;;;;;5053553;28;20017;-71
2022/05/21 11:38:42;;;;;;;29.75;12.02;;;;;;;;;;5054131;28;20122;-72
2022/05/21 11:41:25;;;;;;;24.08;10.85;;;;;;;;;;5053587;28;20044;-72
2022/05/21 11:44:55;;;;;;;26.07;10.27;;;;;;;;;;5052159;28;20044;-72
2022/05/21 11:46:45;;;;;;;23.25;10.35;;;;;;;;;;5053414;28;20284;-72
2022/05/21 11:49:30;;;;;;;28.63;12.40;;;;;;;;;;5054506;28;20051;-72
2022/05/21 11:52:00;;;;;;;29.42;12.27;;;;;;;;;;5053908;28;20017;-72
2022/05/21 11:54:44;;;;;;;25.75;10.57;;;;;;;;;;5053085;28;20028;-72
2022/05/21 11:57:11;;;;;;;29.90;11.63;;;;;;;;;;5049447;28;20029;-72
2022/05/21 11:59:50;;;;;;;29.52;11.98;;;;;;;;;;5053580;28;20496;-72
2022/05/21 12:02:27;;;;;;;26.30;10.55;;;;;;;;;;5053433;28;20032;-72
2022/05/21 12:04:57;;;;;;;30.08;11.40;;;;;;;;;;5053786;28;20041;-72
2022/05/21 12:07:44;;;;;;;42.60;11.52;;;;;;;;;;5052985;28;20036;-72
2022/05/21 12:10:10;;;;;;;27.30;11.00;;;;;;;;;;5040063;28;20083;-72
2022/05/21 12:12:58;;;;;;;28.60;10.70;;;;;;;;;;5052606;28;20128;-72
2022/05/21 12:15:34;;;;;;;28.13;10.98;;;;;;;;;;5051151;28;20040;-72
2022/05/21 12:18:02;;;;;;;31.02;11.00;;;;;;;;;;5048565;28;20055;-72
2022/05/21 12:20:44;;;;;;;26.60;11.07;;;;;;;;;;5054384;28;20037;-72
2022/05/21 12:23:12;;;;;;;29.90;11.90;;;;;;;;;;5053053;28;20493;-72
2022/05/21 12:25:44;;;;;;;25.95;10.40;;;;;;;;;;5053225;28;20039;-72
2022/05/21 12:28:13;;;;;;;32.03;11.13;;;;;;;;;;5054047;28;20041;-72
2022/05/21 12:30:39;;;;;;;30.73;10.93;;;;;;;;;;5052389;28;20029;-72
2022/05/21 12:33:08;;;;;;;25.60;10.27;;;;;;;;;;5052074;28;20033;-73
2022/05/21 12:36:03;;;;;;;31.20;10.85;;;;;;;;;;5054773;28;20021;-72
2022/05/21 12:38:31;;;;;;;24.85;10.27;;;;;;;;;;4971163;28;20066;-71
2022/05/21 12:41:09;;;;;;;29.52;10.25;;;;;;;;;;4970746;28;20045;-71
2022/05/21 12:43:48;;;;;;;28.70;11.38;;;;;;;;;;4970415;28;20046;-71
2022/05/21 12:46:22;;;;;;;29.65;10.43;;;;;;;;;;4970700;28;20038;-72
2022/05/21 12:48:49;;;;;;;24.77;10.20;;;;;;;;;;4970816;28;20144;-72
2022/05/21 12:51:24;;;;;;;22.52;9.45;;;;;;;;;;4970405;28;20566;-71
2022/05/21 12:53:51;;;;;;;24.90;10.60;;;;;;;;;;4969752;28;20047;-71
2022/05/21 12:56:20;;;;;;;23.33;9.02;;;;;;;;;;4960427;28;20474;-71
2022/05/21 12:58:47;;;;;;;28.48;9.88;;;;;;;;;;4963487;28;20035;-71
2022/05/21 13:01:23;;;;;;;30.05;10.23;;;;;;;;;;4961530;28;20047;-71
2022/05/21 13:03:49;;;;;;;23.73;9.90;;;;;;;;;;4966187;28;20070;-71
2022/05/21 13:06:20;;;;;;;29.17;10.25;;;;;;;;;;4966821;28;20070;-71
2022/05/21 13:08:46;;;;;;;25.25;10.32;;;;;;;;;;4965435;28;20125;-71
2022/05/21 13:11:13;;;;;;;26.25;9.65;;;;;;;;;;4950406;28;20115;-71
2022/05/21 13:13:40;;;;;;;26.92;9.85;;;;;;;;;;4965168;28;20051;-71
2022/05/21 13:16:14;;;;;;;25.67;9.52;;;;;;;;;;5033755;28;20033;-71
2022/05/21 13:18:43;;;;;;;22.98;9.85;;;;;;;;;;5045172;28;20409;-71
2022/05/21 13:21:28;;;;;;;26.92;11.15;;;;;;;;;;5048156;28;20112;-71
2022/05/21 13:23:57;;;;;;;28.23;9.38;;;;;;;;;;5047785;28;20037;-72
2022/05/21 13:26:24;;;;;;;25.52;9.10;;;;;;;;;;5045711;28;20565;-71
2022/05/21 13:28:51;;;;;;;26.98;9.18;;;;;;;;;;5044551;28;20483;-71
2022/05/21 13:31:18;;;;;;;24.05;9.63;;;;;;;;;;5045019;28;20058;-71
2022/05/21 13:33:47;;;;;;;28.38;9.18;;;;;;;;;;5047853;28;20029;-71
2022/05/21 13:36:14;;;;;;;23.15;9.00;;;;;;;;;;5048245;28;20033;-71
2022/05/21 13:38:41;;;;;;;24.63;9.68;;;;;;;;;;5047808;28;20040;-72
2022/05/21 13:41:10;;;;;;;20.85;9.27;;;;;;;;;;5046605;28;20036;-72
2022/05/21 13:43:42;;;;;;;22.95;9.10;;;;;;;;;;5045885;28;20583;-73
2022/05/21 13:46:09;;;;;;;24.38;9.35;;;;;;;;;;5056344;28;20290;-72
2022/05/21 13:48:41;;;;;;;25.83;9.10;;;;;;;;;;5055097;28;20378;-72
2022/05/21 13:51:10;;;;;;;23.83;9.20;;;;;;;;;;5047579;28;20500;-72
2022/05/21 13:53:36;;;;;;;26.88;9.85;;;;;;;;;;5046886;28;20760;-72
2022/05/21 13:56:38;;;;;;;22.92;9.95;;;;;;;;;;5043518;28;20029;-73
2022/05/21 13:59:10;;;;;;;24.38;9.60;;;;;;;;;;5005229;28;20053;-72
2022/05/21 14:01:37;;;;;;;24.90;10.75;;;;;;;;;;5004859;28;20049;-72
2022/05/21 14:04:10;;;;;;;26.75;9.68;;;;;;;;;;5005173;28;20509;-72
2022/05/21 14:06:46;;;;;;;25.58;10.25;;;;;;;;;;4989534;28;20048;-72
2022/05/21 14:09:20;;;;;;;31.15;10.77;;;;;;;;;;4988964;28;20442;-72
2022/05/21 14:11:50;;;;;;;24.17;9.93;;;;;;;;;;5007415;28;20068;-72
2022/05/21 14:14:17;;;;;;;23.80;10.23;;;;;;;;;;5006263;28;20585;-72
2022/05/21 14:16:45;;;;;;;28.67;9.85;;;;;;;;;;5008206;28;20034;-72
2022/05/21 14:19:17;;;;;;;18.63;9.50;;;;;;;;;;5007749;28;20159;-72
2022/05/21 14:22:03;;;;;;;20.90;9.48;;;;;;;;;;5008552;28;20450;-72
2022/05/21 14:24:34;;;;;;;25.10;9.57;;;;;;;;;;5008181;28;20042;-73
2022/05/21 14:27:03;;;;;;;29.42;9.90;;;;;;;;;;5009249;28;20046;-72
2022/05/21 14:29:32;;;;;;;22.73;10.20;;;;;;;;;;5008810;28;20569;-72
2022/05/21 14:32:12;;;;;;;23.27;9.18;;;;;;;;;;5008806;28;20071;-72
2022/05/21 14:34:38;;;;;;;21.67;9.45;;;;;;;;;;5039736;28;20060;-72
2022/05/21 14:37:04;;;;;;;28.48;10.15;;;;;;;;;;5047245;28;20049;-72
2022/05/21 14:39:30;;;;;;;28.52;10.85;;;;;;;;;;5048021;28;20028;-71
2022/05/21 14:42:01;;;;;;;27.95;10.18;;;;;;;;;;5050967;28;20033;-70
2022/05/21 14:44:28;;;;;;;26.38;10.40;;;;;;;;;;5047739;28;20581;-70
2022/05/21 14:49:40;;;;;;;38.13;11.48;;;;;;;;;;5047099;28;20071;-70
2022/05/21 14:54:48;;;;;;;20.83;9.95;;;;;;;;;;5135679;23;20081;-80
2022/05/21 14:57:15;;;;;;;31.70;9.82;;;;;;;;;;5047193;28;20402;-79
2022/05/21 14:59:41;;;;;;;28.90;9.98;;;;;;;;;;5047960;28;20059;-78
2022/05/21 15:02:08;;;;;;;25.48;10.27;;;;;;;;;;5046037;28;20029;-79
2022/05/21 15:04:34;;;;;;;23.38;10.27;;;;;;;;;;5046833;28;20041;-80
2022/05/21 15:07:01;;;;;;;33.00;11.48;;;;;;;;;;5048830;28;20501;-79
2022/05/21 15:09:28;;;;;;;20.20;9.23;;;;;;;;;;5050388;28;20762;-79
2022/05/21 15:11:54;;;;;;;30.33;8.68;;;;;;;;;;5051775;28;20408;-79
2022/05/21 15:14:20;;;;;;;23.25;9.75;;;;;;;;;;5049621;28;20021;-76
2022/05/21 15:16:46;;;;;;;26.58;9.15;;;;;;;;;;5049063;28;20024;-77
2022/05/21 15:19:13;;;;;;;25.70;9.70;;;;;;;;;;5048150;28;20497;-76
2022/05/21 15:21:42;;;;;;;30.30;10.05;;;;;;;;;;5048322;28;20466;-77